OISY  Yasouj Airport

Add Bookmark

Iran

Status
Operational
Latitude Longitude
30° 42' 1" N 51° 32' 42" E
30.700500 51.545101
Local (DST + 5) UTC (GMT + 4)
Sep 17, 2014 01:59 Sep 17, 2014 09:29
Sunrise-Sunset Local UTC
Begin Civil Twilight 06:24 01:54
Sunrise 06:48 02:18
Sunset 07:08 14:38
End Civil Twilight 07:32 15:02

Current Weather

METAR Observed VFR
OISY 170900Z 00000KT CAVOK 28/M00 Q1017 Wed, Sep 17, 2014 @ 09:00 UTC
(29 Minutes ago)
Visual Flight Rules
Wind Visibility Clouds Conditions
Calm 10 km or more
  • Clear skies
  • No significant weather
Temperatures Readings Precipitation
Current Temp 28°C (82°F)
Dewpoint 0°C (32°F)
Humidity 16%
Altimeter 30.03"Hg
Sea Level Pressure 1017mb
Field Elevation 5941.6'
None Recorded

Additional weather within a 92.6km radius of OISY

Map ICAO Location
OIAH 79.6km W (240°)

24 Hour Weather History

Loading
-

24 Hour Weather Graphs

Loading
-

CheckWX.com is intended as a tool to help pilots better visualize weather data. It is not intended as a substitute for an official weather briefing obtained from a Flight Service Station. CheckWX.com does not meet the FAA requirements for an official pre-flight weather briefing. Therefore, it's important that pilots still call and obtain an official FSS pre-flight weather briefing.